createdAt,value
2022-08-27T00:01:22.147Z,100207.03
2022-08-27T00:03:56.004Z,100197.00
2022-08-27T00:06:25.632Z,100211.44
2022-08-27T00:08:55.273Z,100205.56
2022-08-27T00:11:25.484Z,100207.03
2022-08-27T00:13:56.602Z,100208.72
2022-08-27T00:16:26.130Z,100210.38
2022-08-27T00:19:00.026Z,100214.41
2022-08-27T00:21:29.517Z,100221.63
2022-08-27T00:23:58.952Z,100217.97
2022-08-27T00:26:28.445Z,100202.13
2022-08-27T00:28:57.890Z,100215.50
2022-08-27T00:31:27.842Z,100211.09
2022-08-27T00:34:00.585Z,100211.66
2022-08-27T00:36:30.203Z,100211.66
2022-08-27T00:38:59.773Z,100207.16
2022-08-27T00:41:29.221Z,100211.78
2022-08-27T00:44:00.129Z,100200.28
2022-08-27T00:46:30.679Z,100207.34
2022-08-27T00:49:05.605Z,100199.94
2022-08-27T00:51:35.152Z,100198.72
2022-08-27T00:54:04.703Z,100208.56
2022-08-27T00:56:36.296Z,100210.13
2022-08-27T00:59:06.311Z,100204.34
2022-08-27T01:01:56.531Z,100212.41
2022-08-27T01:04:28.600Z,100212.69
2022-08-27T01:06:58.120Z,100213.22
2022-08-27T01:09:27.556Z,100209.31
2022-08-27T01:11:57.014Z,100210.69
2022-08-27T01:14:27.045Z,100206.53
2022-08-27T01:16:58.497Z,100211.63
2022-08-27T01:19:32.244Z,100207.28
2022-08-27T01:22:05.028Z,100205.72
2022-08-27T01:24:38.424Z,100205.31
2022-08-27T01:27:13.807Z,100204.81
2022-08-27T01:29:43.514Z,100197.66
2022-08-27T01:32:16.193Z,100196.81
2022-08-27T01:34:46.023Z,100191.25
2022-08-27T01:37:15.654Z,100187.69
2022-08-27T01:39:47.828Z,100189.16
2022-08-27T01:42:19.379Z,100189.41
2022-08-27T01:44:50.901Z,100183.44
2022-08-27T01:47:21.056Z,100183.34
2022-08-27T01:49:50.557Z,100183.09
2022-08-27T01:52:22.363Z,100189.63
2022-08-27T01:54:54.448Z,100186.09
2022-08-27T01:57:26.057Z,100184.81
2022-08-27T01:59:56.993Z,100180.56
2022-08-27T02:02:26.771Z,100184.88
2022-08-27T02:04:56.304Z,100175.69
2022-08-27T02:07:25.826Z,100172.72
2022-08-27T02:09:57.865Z,100169.28
2022-08-27T02:12:27.331Z,100172.88
2022-08-27T02:14:56.764Z,100181.03
2022-08-27T02:17:26.222Z,100182.16
2022-08-27T02:19:56.788Z,100185.34
2022-08-27T02:22:26.878Z,100181.56
2022-08-27T02:24:58.911Z,100182.38
2022-08-27T02:27:28.371Z,100182.63
2022-08-27T02:29:58.112Z,100188.00
2022-08-27T02:32:31.837Z,100178.59
2022-08-27T02:35:01.801Z,100175.31
2022-08-27T02:37:31.359Z,100183.47
2022-08-27T02:40:04.091Z,100179.06
2022-08-27T02:42:33.562Z,100181.78
2022-08-27T02:45:03.036Z,100178.00
2022-08-27T02:47:32.492Z,100176.91
2022-08-27T02:50:02.061Z,100174.97
2022-08-27T02:52:32.242Z,100187.06
2022-08-27T02:55:04.272Z,100182.28
2022-08-27T02:57:36.601Z,100182.34
2022-08-27T03:00:07.597Z,100180.91
2022-08-27T03:02:37.273Z,100180.63
2022-08-27T03:05:08.092Z,100187.13
2022-08-27T03:07:37.573Z,100183.25
2022-08-27T03:10:10.065Z,100185.44
2022-08-27T03:12:39.557Z,100190.22
2022-08-27T03:15:10.568Z,100189.50
2022-08-27T03:17:52.565Z,100192.19
2022-08-27T03:20:22.815Z,100185.13
2022-08-27T03:22:53.082Z,100190.53
2022-08-27T03:25:25.295Z,100192.44
2022-08-27T03:27:54.997Z,100189.75
2022-08-27T03:30:25.333Z,100192.19
2022-08-27T03:32:54.961Z,100192.22
2022-08-27T03:35:24.848Z,100192.25
2022-08-27T03:37:54.387Z,100188.13
2022-08-27T03:40:26.451Z,100189.75
2022-08-27T03:42:55.936Z,100192.06
2022-08-27T03:45:27.261Z,100191.44
2022-08-27T03:47:56.859Z,100196.22
2022-08-27T03:50:26.308Z,100186.00
2022-08-27T03:52:56.027Z,100189.28
2022-08-27T03:55:28.153Z,100192.03
2022-08-27T03:57:57.869Z,100188.28
2022-08-27T04:00:27.381Z,100195.88
2022-08-27T04:02:57.515Z,100188.88
2022-08-27T04:05:27.029Z,100192.31
2022-08-27T04:07:56.508Z,100187.72
2022-08-27T04:10:32.800Z,100180.47
2022-08-27T04:13:04.336Z,100178.88
2022-08-27T04:15:33.778Z,100182.63
2022-08-27T04:18:03.470Z,100186.94
2022-08-27T04:20:35.375Z,100197.19
2022-08-27T04:23:05.364Z,100193.44
2022-08-27T04:25:37.408Z,100189.38
2022-08-27T04:28:07.394Z,100199.28
2022-08-27T04:30:36.859Z,100205.22
2022-08-27T04:33:06.316Z,100198.22
2022-08-27T04:35:35.777Z,100202.78
2022-08-27T04:38:05.664Z,100205.53
2022-08-27T04:40:51.376Z,100208.47
2022-08-27T04:43:22.747Z,100212.78
2022-08-27T04:45:52.417Z,100209.53
2022-08-27T04:48:22.097Z,100221.94
2022-08-27T04:50:51.540Z,100220.84
2022-08-27T04:53:21.374Z,100220.59
2022-08-27T04:55:55.217Z,100224.13
2022-08-27T04:58:25.079Z,100218.94
2022-08-27T05:00:55.399Z,100218.47
2022-08-27T05:03:26.261Z,100206.34
2022-08-27T05:05:56.617Z,100216.56
2022-08-27T05:08:26.093Z,100224.91
2022-08-27T05:11:00.497Z,100225.97
2022-08-27T05:13:30.355Z,100229.25
2022-08-27T05:16:03.717Z,100226.78
2022-08-27T05:18:37.978Z,100226.50
2022-08-27T05:21:19.241Z,100227.59
2022-08-27T05:23:48.891Z,100230.53
2022-08-27T05:26:21.157Z,100227.28
2022-08-27T05:28:50.905Z,100220.09
2022-08-27T05:31:20.879Z,100228.41
2022-08-27T05:33:50.419Z,100221.66
2022-08-27T05:36:21.164Z,100235.09
2022-08-27T05:38:51.769Z,100221.66
2022-08-27T05:41:25.551Z,100227.28
2022-08-27T05:44:10.557Z,100224.88
2022-08-27T05:46:48.305Z,100227.03
2022-08-27T05:49:18.497Z,100223.25
2022-08-27T05:51:48.876Z,100227.06
2022-08-27T05:54:19.743Z,100221.09
2022-08-27T05:56:52.184Z,100227.03
2022-08-27T05:59:34.749Z,100228.66
2022-08-27T06:02:05.960Z,100222.72
2022-08-27T06:04:35.202Z,100225.06
2022-08-27T06:07:04.742Z,100210.16
2022-08-27T06:09:34.193Z,100225.97
2022-08-27T06:12:06.528Z,100218.53
2022-08-27T06:14:36.100Z,100229.19
2022-08-27T06:17:06.367Z,100224.41
2022-08-27T06:19:36.713Z,100219.44
2022-08-27T06:22:09.806Z,100222.13
2022-08-27T06:24:41.188Z,100225.56
2022-08-27T06:27:16.176Z,100220.72
2022-08-27T06:29:46.127Z,100218.06
2022-08-27T06:32:15.825Z,100232.44
2022-08-27T06:34:45.262Z,100231.66
2022-08-27T06:37:14.696Z,100227.34
2022-08-27T06:39:44.228Z,100223.91
2022-08-27T06:42:16.266Z,100231.78
2022-08-27T06:44:45.912Z,100227.03
2022-08-27T06:47:15.361Z,100225.59
2022-08-27T06:49:46.368Z,100220.13
2022-08-27T06:52:16.197Z,100231.13
2022-08-27T06:54:45.871Z,100238.56
2022-08-27T06:57:17.901Z,100239.22
2022-08-27T06:59:47.848Z,100250.59
2022-08-27T07:02:17.492Z,100249.69
2022-08-27T07:04:47.492Z,100244.00
2022-08-27T07:07:36.471Z,100247.13
2022-08-27T07:10:07.597Z,100250.47
2022-08-27T07:12:39.626Z,100261.63
2022-08-27T07:15:10.185Z,100260.22
2022-08-27T07:17:41.112Z,100260.53
2022-08-27T07:20:11.526Z,100268.06
2022-08-27T07:22:41.930Z,100266.44
2022-08-27T07:25:13.037Z,100275.69
2022-08-27T07:27:45.052Z,100268.63
2022-08-27T07:30:15.833Z,100281.63
2022-08-27T07:32:45.349Z,100277.41
2022-08-27T07:35:15.004Z,100285.03
2022-08-27T07:37:44.673Z,100296.19
2022-08-27T07:40:15.823Z,100293.94
2022-08-27T07:43:00.381Z,100296.88
2022-08-27T07:45:30.201Z,100308.59
2022-08-27T07:47:59.845Z,100305.66
2022-08-27T07:50:29.523Z,100309.09
2022-08-27T07:52:59.177Z,100312.22
2022-08-27T07:55:28.971Z,100317.69
2022-08-27T07:58:00.984Z,100313.63
2022-08-27T08:00:30.706Z,100317.97
2022-08-27T08:03:00.207Z,100317.47
2022-08-27T08:05:29.932Z,100322.56
2022-08-27T08:07:59.371Z,100319.75
2022-08-27T08:10:32.353Z,100312.69
2022-08-27T08:13:07.086Z,100316.50
2022-08-27T08:15:37.854Z,100314.50
2022-08-27T08:18:07.480Z,100321.78
2022-08-27T08:20:57.105Z,100326.16
2022-08-27T08:23:26.453Z,100325.38
2022-08-27T08:25:55.918Z,100326.72
2022-08-27T08:28:29.147Z,100329.78
2022-08-27T08:30:58.878Z,100329.78
2022-08-27T08:33:28.618Z,100340.59
2022-08-27T08:35:58.332Z,100348.97
2022-08-27T08:38:28.285Z,100341.53
2022-08-27T08:40:57.757Z,100345.09
2022-08-27T08:43:33.326Z,100348.75
2022-08-27T08:46:07.943Z,100344.56
2022-08-27T08:48:37.486Z,100340.84
2022-08-27T08:51:10.080Z,100342.69
2022-08-27T08:53:43.490Z,100344.38
2022-08-27T08:56:14.834Z,100329.41
2022-08-27T08:58:48.670Z,100338.25
2022-08-27T09:01:20.641Z,100337.00
2022-08-27T09:03:54.672Z,100337.06
2022-08-27T09:06:31.950Z,100333.47
2022-08-27T09:09:04.125Z,100340.41
2022-08-27T09:11:38.012Z,100335.41
2022-08-27T09:14:13.438Z,100336.31
2022-08-27T09:16:43.306Z,100340.00
2022-08-27T09:19:13.732Z,100333.97
2022-08-27T09:21:51.350Z,100344.09
2022-08-27T09:24:23.453Z,100343.50
2022-08-27T09:26:53.034Z,100349.63
2022-08-27T09:29:28.702Z,100349.69
2022-08-27T09:32:00.006Z,100357.09
2022-08-27T09:34:30.699Z,100353.72
2022-08-27T09:37:04.884Z,100346.44
2022-08-27T09:39:39.014Z,100348.63
2022-08-27T09:42:09.401Z,100345.91
2022-08-27T09:44:53.533Z,100353.03
2022-08-27T09:47:23.196Z,100352.34
2022-08-27T09:50:07.023Z,100353.63
2022-08-27T09:52:38.148Z,100349.28
2022-08-27T09:55:07.620Z,100354.97
2022-08-27T09:57:38.663Z,100339.25
2022-08-27T10:00:16.756Z,100345.25
2022-08-27T10:02:52.999Z,100347.88
2022-08-27T10:05:27.940Z,100345.63
2022-08-27T10:07:59.890Z,100345.59
2022-08-27T10:10:40.814Z,100337.53
2022-08-27T10:13:12.618Z,100340.88
2022-08-27T10:15:49.652Z,100343.09
2022-08-27T10:18:22.757Z,100341.84
2022-08-27T10:21:07.958Z,100335.47
2022-08-27T10:23:40.456Z,100339.72
2022-08-27T10:26:12.803Z,100347.22
2022-08-27T10:28:47.284Z,100343.97
2022-08-27T10:31:24.941Z,100338.78
2022-08-27T10:34:12.360Z,100338.22
2022-08-27T10:36:45.983Z,100338.97
2022-08-27T10:39:21.084Z,100342.16
2022-08-27T10:41:54.345Z,100339.47
2022-08-27T10:44:40.629Z,100348.34
2022-08-27T10:47:19.429Z,100342.97
2022-08-27T10:49:51.856Z,100352.06
2022-08-27T10:52:23.867Z,100352.50
2022-08-27T10:54:56.101Z,100356.28
2022-08-27T10:57:57.787Z,100347.88
2022-08-27T11:00:33.535Z,100349.88
2022-08-27T11:03:09.724Z,100354.91
2022-08-27T11:05:45.255Z,100349.34
2022-08-27T11:08:17.322Z,100352.66
2022-08-27T11:10:48.962Z,100347.28
2022-08-27T11:13:20.685Z,100341.84
2022-08-27T11:15:52.170Z,100342.78
2022-08-27T11:18:27.449Z,100338.22
2022-08-27T11:20:59.868Z,100338.69
2022-08-27T11:23:31.206Z,100338.94
2022-08-27T11:26:02.204Z,100332.16
2022-08-27T11:28:37.558Z,100331.47
2022-08-27T11:31:10.520Z,100338.06
2022-08-27T11:33:46.486Z,100330.97
2022-08-27T11:36:35.086Z,100335.41
2022-08-27T11:39:06.020Z,100329.25
2022-08-27T11:41:51.658Z,100330.47
2022-08-27T11:44:22.046Z,100333.28
2022-08-27T11:46:52.800Z,100325.06
2022-08-27T11:49:29.747Z,100319.75
2022-08-27T11:52:01.302Z,100314.72
2022-08-27T11:54:32.277Z,100317.91
2022-08-27T11:57:01.828Z,100319.22
2022-08-27T11:59:35.295Z,100313.47
2022-08-27T12:02:23.632Z,100311.56
2022-08-27T12:04:57.750Z,100325.28
2022-08-27T12:07:31.810Z,100328.22
2022-08-27T12:10:10.111Z,100322.72
2022-08-27T12:12:45.210Z,100322.22
2022-08-27T12:15:18.292Z,100324.84
2022-08-27T12:17:52.113Z,100322.13
2022-08-27T12:20:26.461Z,100328.09
2022-08-27T12:23:16.065Z,100332.84
2022-08-27T12:25:45.718Z,100325.81
2022-08-27T12:28:15.398Z,100320.16
2022-08-27T12:30:52.057Z,100320.53
2022-08-27T12:33:24.891Z,100325.41
2022-08-27T12:35:57.371Z,100319.22
2022-08-27T12:38:39.587Z,100323.50
2022-08-27T12:41:11.740Z,100322.13
2022-08-27T12:43:43.972Z,100313.19
2022-08-27T12:46:16.267Z,100317.91
2022-08-27T12:48:46.926Z,100314.16
2022-08-27T12:51:25.948Z,100320.22
2022-08-27T12:53:56.585Z,100318.00
2022-08-27T12:56:35.294Z,100318.72
2022-08-27T12:59:10.969Z,100307.22
2022-08-27T13:01:51.721Z,100308.94
2022-08-27T13:04:24.115Z,100321.22
2022-08-27T13:06:56.145Z,100312.22
2022-08-27T13:09:29.895Z,100315.78
2022-08-27T13:11:59.666Z,100316.72
2022-08-27T13:14:29.725Z,100317.38
2022-08-27T13:17:00.596Z,100313.91
2022-08-27T13:19:31.403Z,100318.38
2022-08-27T13:22:05.235Z,100307.72
2022-08-27T13:24:35.521Z,100312.56
2022-08-27T13:27:05.596Z,100311.69
2022-08-27T13:29:35.074Z,100326.97
2022-08-27T13:32:04.868Z,100319.31
2022-08-27T13:34:36.600Z,100317.91
2022-08-27T13:37:09.615Z,100315.19
2022-08-27T13:39:40.017Z,100311.28
2022-08-27T13:42:10.341Z,100318.78
2022-08-27T13:44:41.305Z,100311.03
2022-08-27T13:47:17.740Z,100309.78
2022-08-27T13:49:47.205Z,100304.28
2022-08-27T13:52:26.459Z,100307.38
2022-08-27T13:54:58.200Z,100301.94
2022-08-27T13:57:33.851Z,100309.69
2022-08-27T14:00:11.856Z,100301.75
2022-08-27T14:02:42.427Z,100305.19
2022-08-27T14:05:31.160Z,100294.81
2022-08-27T14:08:04.446Z,100299.03
2022-08-27T14:10:36.148Z,100293.78
2022-08-27T14:13:08.443Z,100295.50
2022-08-27T14:15:39.107Z,100292.03
2022-08-27T14:18:09.067Z,100292.13
2022-08-27T14:20:38.540Z,100289.41
2022-08-27T14:23:10.567Z,100285.03
2022-08-27T14:25:40.004Z,100294.38
2022-08-27T14:28:09.804Z,100286.59
2022-08-27T14:30:39.747Z,100277.81
2022-08-27T14:33:09.196Z,100282.25
2022-08-27T14:35:38.763Z,100289.25
2022-08-27T14:38:14.657Z,100285.25
2022-08-27T14:40:44.604Z,100286.72
2022-08-27T14:43:16.132Z,100289.94
2022-08-27T14:45:45.980Z,100284.38
2022-08-27T14:48:18.591Z,100288.94
2022-08-27T14:50:48.758Z,100290.00
2022-08-27T14:53:20.916Z,100292.25
2022-08-27T14:55:52.008Z,100294.00
2022-08-27T14:58:22.417Z,100294.81
2022-08-27T15:00:52.158Z,100294.81
2022-08-27T15:03:25.401Z,100297.94
2022-08-27T15:05:56.056Z,100295.78
2022-08-27T15:08:29.479Z,100297.88
2022-08-27T15:11:01.781Z,100286.91
2022-08-27T15:13:31.252Z,100294.88
2022-08-27T15:16:00.836Z,100294.69
2022-08-27T15:18:30.330Z,100293.81
2022-08-27T15:20:59.790Z,100294.28
2022-08-27T15:23:31.818Z,100299.00
2022-08-27T15:26:01.278Z,100306.66
2022-08-27T15:28:30.737Z,100303.88
2022-08-27T15:31:00.209Z,100303.69
2022-08-27T15:33:29.667Z,100295.09
2022-08-27T15:36:03.851Z,100290.91
2022-08-27T15:38:36.303Z,100297.50
2022-08-27T15:41:05.779Z,100293.09
2022-08-27T15:43:35.244Z,100294.31
2022-08-27T15:46:05.562Z,100292.00
2022-08-27T15:48:35.141Z,100295.75
2022-08-27T15:51:07.006Z,100297.31
2022-08-27T15:53:39.153Z,100298.56
2022-08-27T15:56:09.498Z,100296.44
2022-08-27T15:58:39.485Z,100297.03
2022-08-27T16:01:11.205Z,100292.22
2022-08-27T16:03:40.794Z,100298.84
2022-08-27T16:06:10.284Z,100306.69
2022-08-27T16:08:42.357Z,100300.16
2022-08-27T16:11:12.019Z,100290.63
2022-08-27T16:13:41.679Z,100291.63
2022-08-27T16:16:11.161Z,100285.75
2022-08-27T16:18:40.780Z,100291.81
2022-08-27T16:21:10.244Z,100293.31
2022-08-27T16:23:42.314Z,100295.84
2022-08-27T16:26:11.764Z,100297.66
2022-08-27T16:28:41.196Z,100296.13
2022-08-27T16:31:13.132Z,100297.06
2022-08-27T16:33:43.257Z,100299.34
2022-08-27T16:36:13.006Z,100279.16
2022-08-27T16:38:45.060Z,100289.06
2022-08-27T16:41:14.577Z,100285.34
2022-08-27T16:43:44.027Z,100291.78
2022-08-27T16:46:13.534Z,100293.47
2022-08-27T16:49:01.256Z,100287.13
2022-08-27T16:51:34.663Z,100282.91
2022-08-27T16:54:08.240Z,100288.22
2022-08-27T16:56:38.070Z,100277.97
2022-08-27T16:59:07.889Z,100284.44
2022-08-27T17:01:37.733Z,100290.28
2022-08-27T17:04:11.263Z,100293.88
2022-08-27T17:06:44.799Z,100286.88
2022-08-27T17:09:17.349Z,100297.50
2022-08-27T17:11:47.737Z,100296.47
2022-08-27T17:14:17.189Z,100293.59
2022-08-27T17:16:46.654Z,100291.34
2022-08-27T17:19:17.889Z,100293.75
2022-08-27T17:21:47.380Z,100296.75
2022-08-27T17:24:19.407Z,100297.88
2022-08-27T17:26:48.852Z,100298.50
2022-08-27T17:29:19.818Z,100302.66
2022-08-27T17:31:49.299Z,100290.31
2022-08-27T17:34:19.985Z,100305.84
2022-08-27T17:36:49.581Z,100296.78
2022-08-27T17:39:21.724Z,100297.66
2022-08-27T17:41:52.390Z,100301.59
2022-08-27T17:44:27.837Z,100303.38
2022-08-27T17:46:59.305Z,100302.94
2022-08-27T17:49:31.079Z,100303.81
2022-08-27T17:52:02.299Z,100310.34
2022-08-27T17:54:36.893Z,100307.06
2022-08-27T17:57:07.867Z,100312.16
2022-08-27T17:59:37.386Z,100318.44
2022-08-27T18:02:06.901Z,100322.56
2022-08-27T18:04:36.397Z,100315.00
2022-08-27T18:07:06.027Z,100320.44
2022-08-27T18:09:38.057Z,100328.00
2022-08-27T18:12:07.872Z,100330.00
2022-08-27T18:14:37.680Z,100337.94
2022-08-27T18:17:07.237Z,100330.38
2022-08-27T18:19:37.506Z,100339.38
2022-08-27T18:22:07.361Z,100335.31
2022-08-27T18:24:39.424Z,100338.97
2022-08-27T18:27:08.888Z,100342.78
2022-08-27T18:29:38.321Z,100340.41
2022-08-27T18:32:07.918Z,100344.91
2022-08-27T18:34:37.523Z,100334.06
2022-08-27T18:37:10.333Z,100340.06
2022-08-27T18:39:42.360Z,100341.16
2022-08-27T18:42:11.970Z,100343.63
2022-08-27T18:44:42.540Z,100341.97
2022-08-27T18:47:11.998Z,100350.19
2022-08-27T18:49:41.480Z,100345.50
2022-08-27T18:52:13.523Z,100351.75
2022-08-27T18:54:45.604Z,100356.09
2022-08-27T18:57:15.084Z,100362.63
2022-08-27T18:59:45.731Z,100352.41
2022-08-27T19:02:19.026Z,100351.88
2022-08-27T19:04:48.575Z,100358.66
2022-08-27T19:07:18.037Z,100359.97
2022-08-27T19:09:50.055Z,100364.56
2022-08-27T19:12:19.508Z,100365.94
2022-08-27T19:14:48.957Z,100370.44
2022-08-27T19:17:27.536Z,100356.72
2022-08-27T19:19:56.982Z,100365.06
2022-08-27T19:22:26.437Z,100376.44
2022-08-27T19:24:58.461Z,100372.66
2022-08-27T19:27:28.629Z,100379.19
2022-08-27T19:29:58.828Z,100377.81
2022-08-27T19:32:28.341Z,100376.47
2022-08-27T19:34:57.777Z,100377.28
2022-08-27T19:37:29.391Z,100375.44
2022-08-27T19:40:01.575Z,100384.03
2022-08-27T19:42:31.583Z,100380.28
2022-08-27T19:45:01.029Z,100382.41
2022-08-27T19:47:30.526Z,100389.72
2022-08-27T19:50:00.051Z,100384.00
2022-08-27T19:52:29.523Z,100384.59
2022-08-27T19:55:13.480Z,100389.16
2022-08-27T19:57:43.689Z,100392.44
2022-08-27T20:00:14.637Z,100399.94
2022-08-27T20:02:43.877Z,100405.03
2022-08-27T20:05:18.653Z,100404.53
2022-08-27T20:07:48.861Z,100406.94
2022-08-27T20:10:21.649Z,100410.72
2022-08-27T20:12:51.307Z,100421.50
2022-08-27T20:15:21.447Z,100417.72
2022-08-27T20:17:53.526Z,100425.78
2022-08-27T20:20:24.463Z,100431.75
2022-08-27T20:22:55.173Z,100434.88
2022-08-27T20:25:27.378Z,100440.31
2022-08-27T20:27:56.855Z,100441.38
2022-08-27T20:30:27.488Z,100437.09
2022-08-27T20:32:57.258Z,100445.09
2022-08-27T20:35:27.032Z,100446.34
2022-08-27T20:37:57.231Z,100450.31
2022-08-27T20:40:31.481Z,100459.91
2022-08-27T20:43:01.191Z,100454.97
2022-08-27T20:45:30.946Z,100463.16
2022-08-27T20:48:04.175Z,100468.56
2022-08-27T20:50:33.840Z,100467.47
2022-08-27T20:53:03.309Z,100464.81
2022-08-27T20:55:35.332Z,100476.41
2022-08-27T20:58:22.818Z,100473.75
2022-08-27T21:00:54.615Z,100479.66
2022-08-27T21:03:24.310Z,100483.69
2022-08-27T21:05:53.865Z,100484.25
2022-08-27T21:08:23.411Z,100481.00
2022-08-27T21:10:56.835Z,100489.91
2022-08-27T21:13:26.444Z,100489.59
2022-08-27T21:15:56.586Z,100492.31
2022-08-27T21:18:29.353Z,100485.88
2022-08-27T21:20:59.740Z,100487.47
2022-08-27T21:23:29.549Z,100479.66
2022-08-27T21:26:02.488Z,100482.34
2022-08-27T21:28:32.103Z,100489.09
2022-08-27T21:31:01.591Z,100478.56
2022-08-27T21:33:31.060Z,100489.34
2022-08-27T21:36:00.507Z,100488.56
2022-08-27T21:38:29.950Z,100485.88
2022-08-27T21:41:02.392Z,100492.06
2022-08-27T21:43:31.834Z,100475.94
2022-08-27T21:46:01.364Z,100474.56
2022-08-27T21:48:30.849Z,100476.72
2022-08-27T21:51:00.321Z,100475.09
2022-08-27T21:53:30.198Z,100473.50
2022-08-27T21:56:02.236Z,100466.75
2022-08-27T21:58:31.756Z,100468.09
2022-08-27T22:01:02.773Z,100470.25
2022-08-27T22:03:32.586Z,100471.31
2022-08-27T22:06:02.078Z,100471.31
2022-08-27T22:08:31.766Z,100471.28
2022-08-27T22:11:04.125Z,100471.28
2022-08-27T22:13:33.809Z,100469.66
2022-08-27T22:16:03.395Z,100464.00
2022-08-27T22:18:33.060Z,100467.78
2022-08-27T22:21:02.606Z,100463.22
2022-08-27T22:23:32.097Z,100463.75
2022-08-27T22:26:04.399Z,100454.84
2022-08-27T22:28:33.883Z,100460.78
2022-08-27T22:31:03.377Z,100466.19
2022-08-27T22:33:33.110Z,100461.31
2022-08-27T22:36:02.602Z,100461.31
2022-08-27T22:38:32.175Z,100454.31
2022-08-27T22:41:04.628Z,100457.03
2022-08-27T22:43:34.067Z,100459.72
2022-08-27T22:46:03.506Z,100452.75
2022-08-27T22:48:32.956Z,100454.63
2022-08-27T22:51:02.420Z,100460.03
2022-08-27T22:53:39.342Z,100457.34
2022-08-27T22:56:11.872Z,100457.34
2022-08-27T22:58:46.160Z,100462.97
2022-08-27T23:01:15.933Z,100456.81
2022-08-27T23:03:45.468Z,100463.53
2022-08-27T23:06:14.989Z,100461.63
2022-08-27T23:08:44.462Z,100463.75
2022-08-27T23:11:16.696Z,100459.72
2022-08-27T23:13:46.175Z,100456.81
2022-08-27T23:16:16.869Z,100455.72
2022-08-27T23:18:46.496Z,100455.47
2022-08-27T23:21:16.006Z,100459.50
2022-08-27T23:23:45.483Z,100452.47
2022-08-27T23:26:31.178Z,100447.91
2022-08-27T23:29:00.622Z,100449.50
2022-08-27T23:31:30.152Z,100454.91
2022-08-27T23:33:59.899Z,100446.25
2022-08-27T23:36:29.363Z,100443.00
2022-08-27T23:38:58.835Z,100446.53
2022-08-27T23:41:30.880Z,100455.97
2022-08-27T23:44:00.345Z,100458.38
2022-08-27T23:46:30.622Z,100449.78
2022-08-27T23:49:00.147Z,100451.38
2022-08-27T23:51:29.613Z,100451.09
2022-08-27T23:53:59.044Z,100459.50
2022-08-27T23:56:31.420Z,100458.91
2022-08-27T23:59:00.853Z,100462.41
